sensor_id;sensor_type;location;lat;lon;timestamp;pressure;altitude;pressure_sealevel;temperature;humidity
75460;BME280;64039;53.060;9.342;2022-11-11T00:00:47;102291.25;;;9.27;100.00
75460;BME280;64039;53.060;9.342;2022-11-11T00:03:12;102298.88;;;9.24;100.00
75460;BME280;64039;53.060;9.342;2022-11-11T00:05:38;102290.03;;;9.21;100.00
75460;BME280;64039;53.060;9.342;2022-11-11T00:08:03;102307.56;;;9.25;100.00
75460;BME280;64039;53.060;9.342;2022-11-11T00:10:29;102311.72;;;9.21;100.00
75460;BME280;64039;53.060;9.342;2022-11-11T00:12:59;102311.84;;;9.24;100.00
75460;BME280;64039;53.060;9.342;2022-11-11T00:15:25;102319.19;;;9.15;100.00
75460;BME280;64039;53.060;9.342;2022-11-11T00:17:50;102329.00;;;9.21;100.00
75460;BME280;64039;53.060;9.342;2022-11-11T00:20:35;102333.09;;;9.16;100.00
75460;BME280;64039;53.060;9.342;2022-11-11T00:23:22;102333.88;;;9.15;100.00
75460;BME280;64039;53.060;9.342;2022-11-11T00:26:08;102328.88;;;9.18;100.00
75460;BME280;64039;53.060;9.342;2022-11-11T00:28:34;102337.63;;;9.03;100.00
75460;BME280;64039;53.060;9.342;2022-11-11T00:31:06;102331.63;;;9.04;100.00
75460;BME280;64039;53.060;9.342;2022-11-11T00:33:33;102348.34;;;9.09;100.00
75460;BME280;64039;53.060;9.342;2022-11-11T00:35:59;102353.69;;;9.12;100.00
75460;BME280;64039;53.060;9.342;2022-11-11T00:38:25;102355.78;;;9.20;100.00
75460;BME280;64039;53.060;9.342;2022-11-11T00:41:13;102349.06;;;9.07;100.00
75460;BME280;64039;53.060;9.342;2022-11-11T00:43:41;102344.78;;;9.07;100.00
75460;BME280;64039;53.060;9.342;2022-11-11T00:46:06;102347.06;;;9.01;100.00
75460;BME280;64039;53.060;9.342;2022-11-11T00:48:51;102352.91;;;8.97;100.00
75460;BME280;64039;53.060;9.342;2022-11-11T00:51:35;102344.13;;;8.95;100.00
75460;BME280;64039;53.060;9.342;2022-11-11T00:54:01;102351.53;;;8.87;100.00
75460;BME280;64039;53.060;9.342;2022-11-11T00:56:27;102355.00;;;8.88;100.00
75460;BME280;64039;53.060;9.342;2022-11-11T00:58:52;102345.59;;;8.73;100.00
75460;BME280;64039;53.060;9.342;2022-11-11T01:01:18;102349.44;;;8.80;100.00
75460;BME280;64039;53.060;9.342;2022-11-11T01:03:43;102343.88;;;8.74;100.00
75460;BME280;64039;53.060;9.342;2022-11-11T01:06:11;102322.06;;;8.87;100.00
75460;BME280;64039;53.060;9.342;2022-11-11T01:08:37;102321.75;;;8.80;100.00
75460;BME280;64039;53.060;9.342;2022-11-11T01:11:03;102317.22;;;8.76;100.00
75460;BME280;64039;53.060;9.342;2022-11-11T01:13:31;102327.59;;;8.76;100.00
75460;BME280;64039;53.060;9.342;2022-11-11T01:16:05;102335.94;;;8.71;100.00
75460;BME280;64039;53.060;9.342;2022-11-11T01:18:32;102342.69;;;8.67;100.00
75460;BME280;64039;53.060;9.342;2022-11-11T01:20:58;102342.69;;;8.67;100.00
75460;BME280;64039;53.060;9.342;2022-11-11T01:23:24;102332.94;;;8.63;100.00
75460;BME280;64039;53.060;9.342;2022-11-11T01:25:49;102320.88;;;8.63;100.00
75460;BME280;64039;53.060;9.342;2022-11-11T01:28:17;102326.88;;;8.62;100.00
75460;BME280;64039;53.060;9.342;2022-11-11T01:30:42;102336.59;;;8.67;100.00
75460;BME280;64039;53.060;9.342;2022-11-11T01:33:09;102338.06;;;8.61;100.00
75460;BME280;64039;53.060;9.342;2022-11-11T01:35:38;102336.50;;;8.48;100.00
75460;BME280;64039;53.060;9.342;2022-11-11T01:38:04;102357.66;;;8.56;100.00
75460;BME280;64039;53.060;9.342;2022-11-11T01:40:30;102348.75;;;8.51;100.00
75460;BME280;64039;53.060;9.342;2022-11-11T01:48:17;102332.00;;;8.46;100.00
75460;BME280;64039;53.060;9.342;2022-11-11T01:51:05;102331.91;;;8.44;100.00
75460;BME280;64039;53.060;9.342;2022-11-11T01:53:37;102322.56;;;8.31;100.00
75460;BME280;64039;53.060;9.342;2022-11-11T01:56:03;102322.34;;;8.27;100.00
75460;BME280;64039;53.060;9.342;2022-11-11T01:58:29;102323.03;;;8.24;100.00
75460;BME280;64039;53.060;9.342;2022-11-11T02:00:56;102328.22;;;8.24;100.00
75460;BME280;64039;53.060;9.342;2022-11-11T02:03:23;102322.44;;;8.13;100.00
75460;BME280;64039;53.060;9.342;2022-11-11T02:05:51;102323.25;;;8.12;100.00
75460;BME280;64039;53.060;9.342;2022-11-11T02:08:32;102319.13;;;8.16;100.00
75460;BME280;64039;53.060;9.342;2022-11-11T02:11:10;102324.53;;;8.04;100.00
75460;BME280;64039;53.060;9.342;2022-11-11T02:13:41;102323.16;;;8.11;100.00
75460;BME280;64039;53.060;9.342;2022-11-11T02:16:25;102315.22;;;8.08;100.00
75460;BME280;64039;53.060;9.342;2022-11-11T02:18:51;102327.78;;;8.00;100.00
75460;BME280;64039;53.060;9.342;2022-11-11T02:21:35;102325.66;;;7.93;100.00
75460;BME280;64039;53.060;9.342;2022-11-11T02:24:07;102321.59;;;7.98;100.00
75460;BME280;64039;53.060;9.342;2022-11-11T02:26:35;102342.34;;;7.98;100.00
75460;BME280;64039;53.060;9.342;2022-11-11T02:29:09;102334.38;;;7.95;100.00
75460;BME280;64039;53.060;9.342;2022-11-11T02:31:37;102328.06;;;7.90;100.00
75460;BME280;64039;53.060;9.342;2022-11-11T02:34:03;102326.69;;;7.96;100.00
75460;BME280;64039;53.060;9.342;2022-11-11T02:36:28;102332.03;;;7.99;100.00
75460;BME280;64039;53.060;9.342;2022-11-11T02:38:54;102332.25;;;7.87;100.00
75460;BME280;64039;53.060;9.342;2022-11-11T02:41:20;102334.03;;;7.89;100.00
75460;BME280;64039;53.060;9.342;2022-11-11T02:44:04;102318.41;;;7.87;100.00
75460;BME280;64039;53.060;9.342;2022-11-11T02:46:29;102325.53;;;7.91;100.00
75460;BME280;64039;53.060;9.342;2022-11-11T02:48:55;102330.31;;;7.83;100.00
75460;BME280;64039;53.060;9.342;2022-11-11T02:51:21;102339.59;;;7.80;100.00
75460;BME280;64039;53.060;9.342;2022-11-11T02:53:47;102338.34;;;7.73;100.00
75460;BME280;64039;53.060;9.342;2022-11-11T02:56:12;102331.38;;;7.72;100.00
75460;BME280;64039;53.060;9.342;2022-11-11T02:58:58;102325.75;;;7.64;100.00
75460;BME280;64039;53.060;9.342;2022-11-11T03:01:23;102318.22;;;7.69;100.00
75460;BME280;64039;53.060;9.342;2022-11-11T03:03:49;102319.88;;;7.67;100.00
75460;BME280;64039;53.060;9.342;2022-11-11T03:06:14;102323.53;;;7.70;100.00
75460;BME280;64039;53.060;9.342;2022-11-11T03:08:40;102328.97;;;7.75;100.00
75460;BME280;64039;53.060;9.342;2022-11-11T03:11:05;102333.97;;;7.72;100.00
75460;BME280;64039;53.060;9.342;2022-11-11T03:13:31;102337.38;;;7.71;100.00
75460;BME280;64039;53.060;9.342;2022-11-11T03:15:56;102343.53;;;7.73;100.00
75460;BME280;64039;53.060;9.342;2022-11-11T03:18:22;102344.69;;;7.78;100.00
75460;BME280;64039;53.060;9.342;2022-11-11T03:20:47;102344.16;;;7.69;100.00
75460;BME280;64039;53.060;9.342;2022-11-11T03:23:31;102351.50;;;7.76;100.00
75460;BME280;64039;53.060;9.342;2022-11-11T03:25:56;102350.84;;;7.65;100.00
75460;BME280;64039;53.060;9.342;2022-11-11T03:28:22;102342.47;;;7.69;100.00
75460;BME280;64039;53.060;9.342;2022-11-11T03:30:50;102339.22;;;7.74;100.00
75460;BME280;64039;53.060;9.342;2022-11-11T03:33:17;102338.97;;;7.69;100.00
75460;BME280;64039;53.060;9.342;2022-11-11T03:35:45;102347.13;;;7.60;100.00
75460;BME280;64039;53.060;9.342;2022-11-11T03:38:12;102344.97;;;7.68;100.00
75460;BME280;64039;53.060;9.342;2022-11-11T03:40:44;102348.00;;;7.61;100.00
75460;BME280;64039;53.060;9.342;2022-11-11T03:43:15;102345.50;;;7.62;100.00
75460;BME280;64039;53.060;9.342;2022-11-11T03:45:42;102343.19;;;7.67;100.00
75460;BME280;64039;53.060;9.342;2022-11-11T03:48:08;102351.91;;;7.84;100.00
75460;BME280;64039;53.060;9.342;2022-11-11T03:50:33;102346.47;;;7.79;100.00
75460;BME280;64039;53.060;9.342;2022-11-11T03:52:59;102346.31;;;7.76;100.00
75460;BME280;64039;53.060;9.342;2022-11-11T03:55:25;102362.09;;;7.81;100.00
75460;BME280;64039;53.060;9.342;2022-11-11T03:57:51;102361.50;;;7.85;100.00
75460;BME280;64039;53.060;9.342;2022-11-11T04:00:19;102351.72;;;7.81;100.00
75460;BME280;64039;53.060;9.342;2022-11-11T04:02:46;102350.06;;;7.81;100.00
75460;BME280;64039;53.060;9.342;2022-11-11T04:05:30;102353.72;;;7.85;100.00
75460;BME280;64039;53.060;9.342;2022-11-11T04:08:16;102357.44;;;7.90;100.00
75460;BME280;64039;53.060;9.342;2022-11-11T04:11:11;102356.50;;;7.73;100.00
75460;BME280;64039;53.060;9.342;2022-11-11T04:13:40;102355.06;;;7.78;100.00
75460;BME280;64039;53.060;9.342;2022-11-11T04:16:30;102355.06;;;7.78;100.00
75460;BME280;64039;53.060;9.342;2022-11-11T04:18:55;102355.84;;;7.92;100.00
75460;BME280;64039;53.060;9.342;2022-11-11T04:21:39;102358.44;;;7.92;100.00
75460;BME280;64039;53.060;9.342;2022-11-11T04:24:15;102353.44;;;7.95;100.00
75460;BME280;64039;53.060;9.342;2022-11-11T04:27:02;102361.56;;;8.01;100.00
75460;BME280;64039;53.060;9.342;2022-11-11T04:29:29;102367.44;;;8.14;100.00
75460;BME280;64039;53.060;9.342;2022-11-11T04:32:01;102375.72;;;8.23;100.00
75460;BME280;64039;53.060;9.342;2022-11-11T04:34:49;102378.97;;;8.19;100.00
75460;BME280;64039;53.060;9.342;2022-11-11T04:37:15;102378.88;;;8.17;100.00
75460;BME280;64039;53.060;9.342;2022-11-11T04:39:41;102377.63;;;8.26;100.00
75460;BME280;64039;53.060;9.342;2022-11-11T04:42:26;102375.81;;;8.25;100.00
75460;BME280;64039;53.060;9.342;2022-11-11T04:44:53;102370.53;;;8.23;100.00
75460;BME280;64039;53.060;9.342;2022-11-11T04:47:38;102368.16;;;8.43;100.00
75460;BME280;64039;53.060;9.342;2022-11-11T04:50:04;102364.31;;;8.36;100.00
75460;BME280;64039;53.060;9.342;2022-11-11T04:52:30;102372.03;;;8.34;100.00
75460;BME280;64039;53.060;9.342;2022-11-11T04:54:58;102368.44;;;8.47;100.00
75460;BME280;64039;53.060;9.342;2022-11-11T04:57:46;102367.34;;;8.44;100.00
75460;BME280;64039;53.060;9.342;2022-11-11T05:00:17;102361.22;;;8.58;100.00
75460;BME280;64039;53.060;9.342;2022-11-11T05:02:42;102364.63;;;8.57;100.00
75460;BME280;64039;53.060;9.342;2022-11-11T05:05:27;102361.78;;;8.53;100.00
75460;BME280;64039;53.060;9.342;2022-11-11T05:07:53;102369.69;;;8.54;100.00
75460;BME280;64039;53.060;9.342;2022-11-11T05:10:37;102372.63;;;8.45;100.00
75460;BME280;64039;53.060;9.342;2022-11-11T05:13:04;102383.38;;;8.52;100.00
75460;BME280;64039;53.060;9.342;2022-11-11T05:15:48;102368.81;;;8.39;100.00
75460;BME280;64039;53.060;9.342;2022-11-11T05:18:33;102373.34;;;8.43;100.00
75460;BME280;64039;53.060;9.342;2022-11-11T05:21:20;102373.91;;;8.37;100.00
75460;BME280;64039;53.060;9.342;2022-11-11T05:23:48;102373.28;;;8.41;100.00
75460;BME280;64039;53.060;9.342;2022-11-11T05:26:33;102383.22;;;8.48;100.00
75460;BME280;64039;53.060;9.342;2022-11-11T05:28:58;102370.31;;;8.50;100.00
75460;BME280;64039;53.060;9.342;2022-11-11T05:31:26;102369.56;;;8.53;100.00
75460;BME280;64039;53.060;9.342;2022-11-11T05:33:52;102368.28;;;8.61;100.00
75460;BME280;64039;53.060;9.342;2022-11-11T05:36:17;102360.50;;;8.61;100.00
75460;BME280;64039;53.060;9.342;2022-11-11T05:38:42;102367.72;;;8.67;100.00
75460;BME280;64039;53.060;9.342;2022-11-11T05:41:08;102364.19;;;8.64;100.00
75460;BME280;64039;53.060;9.342;2022-11-11T05:43:34;102363.44;;;8.67;100.00
75460;BME280;64039;53.060;9.342;2022-11-11T05:45:59;102360.84;;;8.67;100.00
75460;BME280;64039;53.060;9.342;2022-11-11T05:48:24;102367.41;;;8.60;100.00
75460;BME280;64039;53.060;9.342;2022-11-11T05:50:50;102364.81;;;8.60;100.00
75460;BME280;64039;53.060;9.342;2022-11-11T05:53:15;102358.88;;;8.63;100.00
75460;BME280;64039;53.060;9.342;2022-11-11T05:55:41;102354.59;;;8.63;100.00
75460;BME280;64039;53.060;9.342;2022-11-11T05:58:06;102363.44;;;8.67;100.00
75460;BME280;64039;53.060;9.342;2022-11-11T06:00:32;102359.00;;;8.64;100.00
75460;BME280;64039;53.060;9.342;2022-11-11T06:03:02;102365.50;;;8.73;100.00
75460;BME280;64039;53.060;9.342;2022-11-11T06:05:28;102367.59;;;8.80;100.00
75460;BME280;64039;53.060;9.342;2022-11-11T06:07:54;102377.19;;;8.81;100.00
75460;BME280;64039;53.060;9.342;2022-11-11T06:10:24;102384.22;;;8.84;100.00
75460;BME280;64039;53.060;9.342;2022-11-11T06:12:59;102398.66;;;8.78;100.00
75460;BME280;64039;53.060;9.342;2022-11-11T06:15:35;102393.88;;;8.86;100.00
75460;BME280;64039;53.060;9.342;2022-11-11T06:18:02;102398.81;;;8.81;100.00
75460;BME280;64039;53.060;9.342;2022-11-11T06:20:30;102395.97;;;8.77;100.00
75460;BME280;64039;53.060;9.342;2022-11-11T06:22:55;102401.25;;;8.78;100.00
75460;BME280;64039;53.060;9.342;2022-11-11T06:25:31;102402.16;;;8.79;100.00
75460;BME280;64039;53.060;9.342;2022-11-11T06:28:16;102414.88;;;8.74;100.00
75460;BME280;64039;53.060;9.342;2022-11-11T06:30:44;102402.06;;;8.77;100.00
75460;BME280;64039;53.060;9.342;2022-11-11T06:33:10;102399.13;;;8.71;100.00
75460;BME280;64039;53.060;9.342;2022-11-11T06:35:38;102402.28;;;8.65;100.00
75460;BME280;64039;53.060;9.342;2022-11-11T06:38:05;102414.47;;;8.67;100.00
75460;BME280;64039;53.060;9.342;2022-11-11T06:40:32;102413.72;;;8.69;100.00
75460;BME280;64039;53.060;9.342;2022-11-11T06:43:00;102416.69;;;8.75;100.00
75460;BME280;64039;53.060;9.342;2022-11-11T06:45:28;102420.97;;;8.75;100.00
75460;BME280;64039;53.060;9.342;2022-11-11T06:47:54;102426.34;;;8.78;100.00
75460;BME280;64039;53.060;9.342;2022-11-11T06:50:19;102434.69;;;8.89;100.00
75460;BME280;64039;53.060;9.342;2022-11-11T06:52:45;102436.06;;;8.82;100.00
75460;BME280;64039;53.060;9.342;2022-11-11T06:55:11;102432.34;;;8.93;100.00
75460;BME280;64039;53.060;9.342;2022-11-11T06:57:37;102446.44;;;8.82;100.00
75460;BME280;64039;53.060;9.342;2022-11-11T07:00:04;102439.25;;;8.76;100.00
75460;BME280;64039;53.060;9.342;2022-11-11T07:02:30;102434.66;;;8.72;100.00
75460;BME280;64039;53.060;9.342;2022-11-11T07:04:55;102444.69;;;8.81;100.00
75460;BME280;64039;53.060;9.342;2022-11-11T07:07:20;102454.91;;;8.94;100.00
75460;BME280;64039;53.060;9.342;2022-11-11T07:09:46;102449.53;;;8.75;100.00
75460;BME280;64039;53.060;9.342;2022-11-11T07:12:11;102444.06;;;8.70;100.00
75460;BME280;64039;53.060;9.342;2022-11-11T07:14:37;102437.44;;;8.75;100.00
75460;BME280;64039;53.060;9.342;2022-11-11T07:17:02;102453.50;;;8.68;100.00
75460;BME280;64039;53.060;9.342;2022-11-11T07:19:29;102463.88;;;8.68;100.00
75460;BME280;64039;53.060;9.342;2022-11-11T07:21:55;102457.44;;;8.61;100.00
75460;BME280;64039;53.060;9.342;2022-11-11T07:24:20;102461.69;;;8.76;100.00
75460;BME280;64039;53.060;9.342;2022-11-11T07:26:46;102466.38;;;8.67;100.00
75460;BME280;64039;53.060;9.342;2022-11-11T07:29:11;102472.03;;;8.59;100.00
75460;BME280;64039;53.060;9.342;2022-11-11T07:31:39;102476.28;;;8.74;100.00
75460;BME280;64039;53.060;9.342;2022-11-11T07:34:06;102474.41;;;8.71;100.00
75460;BME280;64039;53.060;9.342;2022-11-11T07:36:31;102476.28;;;8.74;100.00
75460;BME280;64039;53.060;9.342;2022-11-11T07:38:57;102472.00;;;8.74;100.00
75460;BME280;64039;53.060;9.342;2022-11-11T07:41:22;102472.06;;;8.76;100.00
75460;BME280;64039;53.060;9.342;2022-11-11T07:43:48;102468.75;;;8.78;100.00
75460;BME280;64039;53.060;9.342;2022-11-11T07:46:13;102482.34;;;8.58;100.00
75460;BME280;64039;53.060;9.342;2022-11-11T07:48:39;102488.84;;;8.66;100.00
75460;BME280;64039;53.060;9.342;2022-11-11T07:51:04;102489.19;;;8.72;100.00
75460;BME280;64039;53.060;9.342;2022-11-11T07:53:30;102501.47;;;8.91;100.00
75460;BME280;64039;53.060;9.342;2022-11-11T07:55:55;102492.00;;;8.92;100.00
75460;BME280;64039;53.060;9.342;2022-11-11T07:58:21;102507.28;;;9.02;100.00
75460;BME280;64039;53.060;9.342;2022-11-11T08:00:46;102503.28;;;8.92;100.00
75460;BME280;64039;53.060;9.342;2022-11-11T08:03:12;102513.06;;;8.81;100.00
75460;BME280;64039;53.060;9.342;2022-11-11T08:05:37;102507.88;;;8.81;100.00
75460;BME280;64039;53.060;9.342;2022-11-11T08:08:07;102509.59;;;8.81;100.00
75460;BME280;64039;53.060;9.342;2022-11-11T08:10:33;102511.31;;;8.97;100.00
75460;BME280;64039;53.060;9.342;2022-11-11T08:13:00;102517.31;;;8.96;100.00
75460;BME280;64039;53.060;9.342;2022-11-11T08:15:44;102511.53;;;8.85;100.00
75460;BME280;64039;53.060;9.342;2022-11-11T08:18:10;102509.81;;;8.86;100.00
75460;BME280;64039;53.060;9.342;2022-11-11T08:20:36;102508.94;;;8.85;100.00
75460;BME280;64039;53.060;9.342;2022-11-11T08:23:03;102511.25;;;8.95;100.00
75460;BME280;64039;53.060;9.342;2022-11-11T08:25:32;102522.16;;;9.05;100.00
75460;BME280;64039;53.060;9.342;2022-11-11T08:28:03;102516.38;;;8.94;100.00
75460;BME280;64039;53.060;9.342;2022-11-11T08:30:29;102530.16;;;8.93;100.00
75460;BME280;64039;53.060;9.342;2022-11-11T08:33:03;102532.56;;;8.90;100.00
75460;BME280;64039;53.060;9.342;2022-11-11T08:35:30;102538.06;;;8.79;100.00
75460;BME280;64039;53.060;9.342;2022-11-11T08:38:00;102540.06;;;8.69;100.00
75460;BME280;64039;53.060;9.342;2022-11-11T08:40:26;102538.66;;;8.90;100.00
75460;BME280;64039;53.060;9.342;2022-11-11T08:42:55;102542.66;;;9.00;100.00
75460;BME280;64039;53.060;9.342;2022-11-11T08:45:22;102543.72;;;9.04;100.00
75460;BME280;64039;53.060;9.342;2022-11-11T08:47:47;102553.81;;;9.14;100.00
75460;BME280;64039;53.060;9.342;2022-11-11T08:50:13;102545.66;;;9.08;100.00
75460;BME280;64039;53.060;9.342;2022-11-11T08:52:52;102545.41;;;9.03;100.00
75460;BME280;64039;53.060;9.342;2022-11-11T08:55:18;102544.69;;;8.89;100.00
75460;BME280;64039;53.060;9.342;2022-11-11T08:57:44;102542.41;;;8.95;100.00
75460;BME280;64039;53.060;9.342;2022-11-11T09:00:10;102542.16;;;8.91;100.00
75460;BME280;64039;53.060;9.342;2022-11-11T09:02:36;102555.91;;;9.05;100.00
75460;BME280;64039;53.060;9.342;2022-11-11T09:05:02;102562.13;;;8.92;100.00
75460;BME280;64039;53.060;9.342;2022-11-11T09:07:27;102565.25;;;9.01;100.00
75460;BME280;64039;53.060;9.342;2022-11-11T09:09:53;102554.19;;;9.05;100.00
75460;BME280;64039;53.060;9.342;2022-11-11T09:12:19;102556.97;;;9.08;100.00
75460;BME280;64039;53.060;9.342;2022-11-11T09:14:44;102560.56;;;9.10;100.00
75460;BME280;64039;53.060;9.342;2022-11-11T09:17:10;102568.56;;;9.15;100.00
75460;BME280;64039;53.060;9.342;2022-11-11T09:19:35;102572.97;;;9.16;100.00
75460;BME280;64039;53.060;9.342;2022-11-11T09:22:01;102576.28;;;9.13;100.00
75460;BME280;64039;53.060;9.342;2022-11-11T09:24:27;102573.41;;;9.24;100.00
75460;BME280;64039;53.060;9.342;2022-11-11T09:26:53;102576.19;;;9.27;100.00
75460;BME280;64039;53.060;9.342;2022-11-11T09:29:18;102582.94;;;9.40;100.00
75460;BME280;64039;53.060;9.342;2022-11-11T09:31:45;102582.03;;;9.39;100.00
75460;BME280;64039;53.060;9.342;2022-11-11T09:34:10;102583.50;;;9.34;100.00
75460;BME280;64039;53.060;9.342;2022-11-11T09:36:36;102580.78;;;9.33;100.00
75460;BME280;64039;53.060;9.342;2022-11-11T09:39:01;102581.78;;;9.35;100.00
75460;BME280;64039;53.060;9.342;2022-11-11T09:41:36;102588.06;;;9.55;100.00
75460;BME280;64039;53.060;9.342;2022-11-11T09:47:03;102593.81;;;9.49;100.00
75460;BME280;64039;53.060;9.342;2022-11-11T09:50:10;102596.41;;;9.49;100.00
75460;BME280;64039;53.060;9.342;2022-11-11T09:55:22;102589.47;;;9.81;100.00
75460;BME280;64039;53.060;9.342;2022-11-11T10:00:36;102582.13;;;9.74;100.00
75460;BME280;64039;53.060;9.342;2022-11-11T10:03:20;102588.56;;;9.81;100.00
75460;BME280;64039;53.060;9.342;2022-11-11T10:05:55;102596.78;;;9.88;100.00
75460;BME280;64039;53.060;9.342;2022-11-11T10:08:31;102594.56;;;9.96;100.00
75460;BME280;64039;53.060;9.342;2022-11-11T10:10:59;102597.66;;;10.05;100.00
75460;BME280;64039;53.060;9.342;2022-11-11T10:13:29;102603.50;;;10.01;100.00
75460;BME280;64039;53.060;9.342;2022-11-11T10:21:36;102596.59;;;9.85;100.00
75460;BME280;64039;53.060;9.342;2022-11-11T10:24:10;102572.44;;;9.88;100.00
75460;BME280;64039;53.060;9.342;2022-11-11T10:26:39;102584.75;;;10.07;100.00
75460;BME280;64039;53.060;9.342;2022-11-11T10:29:14;102593.66;;;10.12;100.00
75460;BME280;64039;53.060;9.342;2022-11-11T10:31:43;102583.84;;;9.90;100.00
75460;BME280;64039;53.060;9.342;2022-11-11T10:34:11;102588.22;;;10.07;100.00
75460;BME280;64039;53.060;9.342;2022-11-11T10:36:45;102585.66;;;10.26;100.00
75460;BME280;64039;53.060;9.342;2022-11-11T10:42:13;102602.28;;;10.11;100.00
75460;BME280;64039;53.060;9.342;2022-11-11T10:44:41;102589.41;;;10.31;100.00
75460;BME280;64039;53.060;9.342;2022-11-11T10:50:21;102585.47;;;10.56;100.00
75460;BME280;64039;53.060;9.342;2022-11-11T10:55:42;102589.03;;;10.58;100.00
75460;BME280;64039;53.060;9.342;2022-11-11T10:58:33;102592.41;;;10.73;100.00
75460;BME280;64039;53.060;9.342;2022-11-11T11:01:04;102579.84;;;10.82;100.00
75460;BME280;64039;53.060;9.342;2022-11-11T11:03:38;102583.47;;;10.86;100.00
75460;BME280;64039;53.060;9.342;2022-11-11T11:06:25;102580.72;;;10.83;100.00
75460;BME280;64039;53.060;9.342;2022-11-11T11:08:54;102588.97;;;10.74;100.00
75460;BME280;64039;53.060;9.342;2022-11-11T11:11:30;102571.72;;;10.94;100.00
75460;BME280;64039;53.060;9.342;2022-11-11T11:14:01;102578.97;;;10.83;100.00
75460;BME280;64039;53.060;9.342;2022-11-11T11:16:32;102585.63;;;10.95;100.00
75460;BME280;64039;53.060;9.342;2022-11-11T11:19:23;102576.31;;;10.82;100.00
75460;BME280;64039;53.060;9.342;2022-11-11T11:21:50;102578.84;;;10.98;100.00
75460;BME280;64039;53.060;9.342;2022-11-11T11:24:30;102578.09;;;11.01;100.00
75460;BME280;64039;53.060;9.342;2022-11-11T11:27:04;102579.81;;;11.00;100.00
75460;BME280;64039;53.060;9.342;2022-11-11T11:29:39;102569.44;;;11.02;100.00
75460;BME280;64039;53.060;9.342;2022-11-11T11:32:11;102574.53;;;10.99;100.00
75460;BME280;64039;53.060;9.342;2022-11-11T11:34:52;102568.69;;;11.05;100.00
75460;BME280;64039;53.060;9.342;2022-11-11T11:37:20;102562.06;;;11.11;100.00
75460;BME280;64039;53.060;9.342;2022-11-11T11:39:47;102570.38;;;11.22;100.00
75460;BME280;64039;53.060;9.342;2022-11-11T11:42:46;102570.53;;;11.25;100.00
75460;BME280;64039;53.060;9.342;2022-11-11T11:45:28;102572.78;;;11.17;100.00
75460;BME280;64039;53.060;9.342;2022-11-11T11:50:39;102559.84;;;11.39;100.00
75460;BME280;64039;53.060;9.342;2022-11-11T11:55:41;102562.34;;;11.55;100.00
75460;BME280;64039;53.060;9.342;2022-11-11T12:01:20;102556.78;;;11.67;100.00
75460;BME280;64039;53.060;9.342;2022-11-11T12:06:45;102559.47;;;11.69;100.00
75460;BME280;64039;53.060;9.342;2022-11-11T12:17:32;102551.25;;;11.79;100.00
75460;BME280;64039;53.060;9.342;2022-11-11T12:20:18;102554.88;;;11.83;100.00
75460;BME280;64039;53.060;9.342;2022-11-11T12:30:18;102541.75;;;12.01;100.00
75460;BME280;64039;53.060;9.342;2022-11-11T12:33:19;102534.25;;;12.08;100.00
75460;BME280;64039;53.060;9.342;2022-11-11T12:38:56;102532.53;;;12.30;100.00
75460;BME280;64039;53.060;9.342;2022-11-11T13:00:18;102537.75;;;12.72;98.39
75460;BME280;64039;53.060;9.342;2022-11-11T13:03:05;102543.41;;;12.62;98.64
75460;BME280;64039;53.060;9.342;2022-11-11T13:06:03;102546.06;;;12.64;98.98
75460;BME280;64039;53.060;9.342;2022-11-11T13:11:51;102550.22;;;12.80;98.67
75460;BME280;64039;53.060;9.342;2022-11-11T13:17:10;102557.88;;;12.75;98.11
75460;BME280;64039;53.060;9.342;2022-11-11T13:19:53;102560.06;;;12.87;97.93
75460;BME280;64039;53.060;9.342;2022-11-11T13:22:22;102555.81;;;12.89;97.82
75460;BME280;64039;53.060;9.342;2022-11-11T13:24:50;102546.03;;;12.85;98.21
75460;BME280;64039;53.060;9.342;2022-11-11T13:27:39;102562.28;;;12.99;97.81
75460;BME280;64039;53.060;9.342;2022-11-11T13:33:04;102554.91;;;12.88;98.25
75460;BME280;64039;53.060;9.342;2022-11-11T13:35:41;102562.34;;;13.00;98.50
75460;BME280;64039;53.060;9.342;2022-11-11T13:40:55;102564.44;;;12.86;97.75
75460;BME280;64039;53.060;9.342;2022-11-11T13:43:28;102564.59;;;12.91;98.67
75460;BME280;64039;53.060;9.342;2022-11-11T13:45:57;102554.47;;;12.78;98.35
75460;BME280;64039;53.060;9.342;2022-11-11T13:51:51;102556.16;;;12.76;98.61
75460;BME280;64039;53.060;9.342;2022-11-11T13:53:59;102555.88;;;12.69;98.53
75460;BME280;64039;53.060;9.342;2022-11-11T13:56:59;102555.19;;;12.73;98.00
75460;BME280;64039;53.060;9.342;2022-11-11T13:59:26;102560.63;;;12.78;98.23
75460;BME280;64039;53.060;9.342;2022-11-11T14:02:13;102556.25;;;12.79;99.03
75460;BME280;64039;53.060;9.342;2022-11-11T14:10:05;102560.47;;;12.75;99.30
75460;BME280;64039;53.060;9.342;2022-11-11T14:12:37;102562.97;;;12.72;99.29
75460;BME280;64039;53.060;9.342;2022-11-11T14:15:04;102566.28;;;12.68;99.43
75460;BME280;64039;53.060;9.342;2022-11-11T14:17:33;102566.34;;;12.69;98.25
75460;BME280;64039;53.060;9.342;2022-11-11T14:25:47;102569.44;;;12.59;99.30
75460;BME280;64039;53.060;9.342;2022-11-11T14:30:59;102580.38;;;12.50;98.49
75460;BME280;64039;53.060;9.342;2022-11-11T14:36:50;102581.09;;;12.46;99.17
75460;BME280;64039;53.060;9.342;2022-11-11T14:45:00;102594.50;;;12.34;98.93
75460;BME280;64039;53.060;9.342;2022-11-11T14:47:41;102583.69;;;12.25;99.78
75460;BME280;64039;53.060;9.342;2022-11-11T14:53:24;102584.44;;;12.22;99.55
75460;BME280;64039;53.060;9.342;2022-11-11T14:55:54;102588.16;;;12.08;100.00
75460;BME280;64039;53.060;9.342;2022-11-11T14:58:23;102589.59;;;12.01;100.00
75460;BME280;64039;53.060;9.342;2022-11-11T15:03:39;102597.84;;;11.91;100.00
75460;BME280;64039;53.060;9.342;2022-11-11T15:06:23;102598.38;;;11.84;100.00